sensor_id;sensor_type;location;lat;lon;timestamp;P1;durP1;ratioP1;P2;durP2;ratioP2
44508;SDS011;30214;52.246;14.408;2022-09-28T00:00:54;7.45;;;2.70;;
44508;SDS011;30214;52.246;14.408;2022-09-28T00:03:22;5.20;;;2.63;;
44508;SDS011;30214;52.246;14.408;2022-09-28T00:05:50;4.90;;;2.70;;
44508;SDS011;30214;52.246;14.408;2022-09-28T00:08:17;4.10;;;2.30;;
44508;SDS011;30214;52.246;14.408;2022-09-28T00:10:52;6.18;;;2.60;;
44508;SDS011;30214;52.246;14.408;2022-09-28T00:13:21;5.20;;;2.53;;
44508;SDS011;30214;52.246;14.408;2022-09-28T00:15:57;4.35;;;2.30;;
44508;SDS011;30214;52.246;14.408;2022-09-28T00:18:25;5.60;;;2.58;;
44508;SDS011;30214;52.246;14.408;2022-09-28T00:21:03;3.95;;;2.50;;
44508;SDS011;30214;52.246;14.408;2022-09-28T00:23:33;4.40;;;2.65;;
44508;SDS011;30214;52.246;14.408;2022-09-28T00:26:22;4.75;;;2.60;;
44508;SDS011;30214;52.246;14.408;2022-09-28T00:28:50;3.30;;;2.63;;
44508;SDS011;30214;52.246;14.408;2022-09-28T00:31:17;5.05;;;2.70;;
44508;SDS011;30214;52.246;14.408;2022-09-28T00:33:48;6.65;;;2.67;;
44508;SDS011;30214;52.246;14.408;2022-09-28T00:36:17;4.75;;;2.53;;
44508;SDS011;30214;52.246;14.408;2022-09-28T00:38:44;4.35;;;2.33;;
44508;SDS011;30214;52.246;14.408;2022-09-28T00:41:11;4.65;;;2.60;;
44508;SDS011;30214;52.246;14.408;2022-09-28T00:43:39;4.38;;;3.00;;
44508;SDS011;30214;52.246;14.408;2022-09-28T00:46:09;4.35;;;2.10;;
44508;SDS011;30214;52.246;14.408;2022-09-28T00:48:41;5.88;;;2.47;;
44508;SDS011;30214;52.246;14.408;2022-09-28T00:51:17;4.15;;;2.53;;
44508;SDS011;30214;52.246;14.408;2022-09-28T00:53:44;5.93;;;2.50;;
44508;SDS011;30214;52.246;14.408;2022-09-28T00:56:13;6.28;;;2.78;;
44508;SDS011;30214;52.246;14.408;2022-09-28T00:58:45;6.53;;;3.17;;
44508;SDS011;30214;52.246;14.408;2022-09-28T01:01:15;7.18;;;2.60;;
44508;SDS011;30214;52.246;14.408;2022-09-28T01:03:42;3.65;;;2.25;;
44508;SDS011;30214;52.246;14.408;2022-09-28T01:06:14;7.00;;;2.53;;
44508;SDS011;30214;52.246;14.408;2022-09-28T01:08:46;6.10;;;2.33;;
44508;SDS011;30214;52.246;14.408;2022-09-28T01:11:16;5.57;;;2.78;;
44508;SDS011;30214;52.246;14.408;2022-09-28T01:13:43;5.57;;;2.67;;
44508;SDS011;30214;52.246;14.408;2022-09-28T01:16:13;6.80;;;2.53;;
44508;SDS011;30214;52.246;14.408;2022-09-28T01:18:52;3.67;;;2.40;;
44508;SDS011;30214;52.246;14.408;2022-09-28T01:21:30;5.97;;;2.42;;
44508;SDS011;30214;52.246;14.408;2022-09-28T01:24:13;5.05;;;2.50;;
44508;SDS011;30214;52.246;14.408;2022-09-28T01:26:57;4.50;;;2.45;;
44508;SDS011;30214;52.246;14.408;2022-09-28T01:29:38;4.25;;;2.35;;
44508;SDS011;30214;52.246;14.408;2022-09-28T01:32:13;5.28;;;2.50;;
44508;SDS011;30214;52.246;14.408;2022-09-28T01:34:51;5.63;;;2.55;;
44508;SDS011;30214;52.246;14.408;2022-09-28T01:37:24;3.80;;;2.47;;
44508;SDS011;30214;52.246;14.408;2022-09-28T01:39:57;4.07;;;2.30;;
44508;SDS011;30214;52.246;14.408;2022-09-28T01:42:28;3.42;;;2.22;;
44508;SDS011;30214;52.246;14.408;2022-09-28T01:44:59;5.50;;;2.50;;
44508;SDS011;30214;52.246;14.408;2022-09-28T01:47:34;3.88;;;2.00;;
44508;SDS011;30214;52.246;14.408;2022-09-28T01:50:06;4.28;;;2.20;;
44508;SDS011;30214;52.246;14.408;2022-09-28T01:52:40;3.40;;;2.10;;
44508;SDS011;30214;52.246;14.408;2022-09-28T01:55:12;6.07;;;2.30;;
44508;SDS011;30214;52.246;14.408;2022-09-28T01:57:47;2.45;;;1.90;;
44508;SDS011;30214;52.246;14.408;2022-09-28T02:00:17;3.92;;;2.17;;
44508;SDS011;30214;52.246;14.408;2022-09-28T02:02:49;4.65;;;2.50;;
44508;SDS011;30214;52.246;14.408;2022-09-28T02:05:33;4.70;;;2.13;;
44508;SDS011;30214;52.246;14.408;2022-09-28T02:08:05;6.10;;;2.83;;
44508;SDS011;30214;52.246;14.408;2022-09-28T02:10:37;4.15;;;2.20;;
44508;SDS011;30214;52.246;14.408;2022-09-28T02:13:10;3.33;;;2.28;;
44508;SDS011;30214;52.246;14.408;2022-09-28T02:18:14;3.72;;;2.10;;
44508;SDS011;30214;52.246;14.408;2022-09-28T02:20:41;3.28;;;2.10;;
44508;SDS011;30214;52.246;14.408;2022-09-28T02:23:17;5.20;;;2.30;;
44508;SDS011;30214;52.246;14.408;2022-09-28T02:25:49;3.78;;;2.08;;
44508;SDS011;30214;52.246;14.408;2022-09-28T02:28:21;5.53;;;2.33;;
44508;SDS011;30214;52.246;14.408;2022-09-28T02:30:49;3.65;;;2.17;;
44508;SDS011;30214;52.246;14.408;2022-09-28T02:33:17;4.68;;;2.53;;
44508;SDS011;30214;52.246;14.408;2022-09-28T02:35:53;5.30;;;2.50;;
44508;SDS011;30214;52.246;14.408;2022-09-28T02:38:24;4.75;;;2.30;;
44508;SDS011;30214;52.246;14.408;2022-09-28T02:40:53;4.75;;;2.60;;
44508;SDS011;30214;52.246;14.408;2022-09-28T02:43:31;3.15;;;2.28;;
44508;SDS011;30214;52.246;14.408;2022-09-28T02:46:08;6.93;;;2.30;;
44508;SDS011;30214;52.246;14.408;2022-09-28T02:48:52;3.00;;;1.97;;
44508;SDS011;30214;52.246;14.408;2022-09-28T02:51:35;3.03;;;1.83;;
44508;SDS011;30214;52.246;14.408;2022-09-28T02:54:20;5.75;;;2.40;;
44508;SDS011;30214;52.246;14.408;2022-09-28T02:57:09;4.72;;;2.22;;
44508;SDS011;30214;52.246;14.408;2022-09-28T02:59:48;3.92;;;2.40;;
44508;SDS011;30214;52.246;14.408;2022-09-28T03:02:29;5.10;;;2.53;;
44508;SDS011;30214;52.246;14.408;2022-09-28T03:05:05;3.95;;;2.45;;
44508;SDS011;30214;52.246;14.408;2022-09-28T03:07:40;5.32;;;2.50;;
44508;SDS011;30214;52.246;14.408;2022-09-28T03:10:16;3.95;;;2.53;;
44508;SDS011;30214;52.246;14.408;2022-09-28T03:12:51;3.88;;;2.15;;
44508;SDS011;30214;52.246;14.408;2022-09-28T03:15:22;4.43;;;2.10;;
44508;SDS011;30214;52.246;14.408;2022-09-28T03:17:52;4.88;;;2.10;;
44508;SDS011;30214;52.246;14.408;2022-09-28T03:20:19;3.35;;;2.00;;
44508;SDS011;30214;52.246;14.408;2022-09-28T03:22:47;3.35;;;2.08;;
44508;SDS011;30214;52.246;14.408;2022-09-28T03:25:14;3.25;;;2.13;;
44508;SDS011;30214;52.246;14.408;2022-09-28T03:27:41;4.55;;;2.17;;
44508;SDS011;30214;52.246;14.408;2022-09-28T03:30:09;2.97;;;1.95;;
44508;SDS011;30214;52.246;14.408;2022-09-28T03:32:41;4.25;;;2.10;;
44508;SDS011;30214;52.246;14.408;2022-09-28T03:35:09;4.75;;;2.20;;
44508;SDS011;30214;52.246;14.408;2022-09-28T03:37:36;5.45;;;2.00;;
44508;SDS011;30214;52.246;14.408;2022-09-28T03:40:04;3.40;;;2.10;;
44508;SDS011;30214;52.246;14.408;2022-09-28T03:42:34;4.55;;;2.40;;
44508;SDS011;30214;52.246;14.408;2022-09-28T03:45:03;3.65;;;1.90;;
44508;SDS011;30214;52.246;14.408;2022-09-28T03:47:31;3.63;;;2.28;;
44508;SDS011;30214;52.246;14.408;2022-09-28T03:50:00;4.47;;;2.00;;
44508;SDS011;30214;52.246;14.408;2022-09-28T03:52:27;3.75;;;2.17;;
44508;SDS011;30214;52.246;14.408;2022-09-28T03:54:54;3.50;;;1.70;;
44508;SDS011;30214;52.246;14.408;2022-09-28T03:57:21;3.63;;;1.95;;
44508;SDS011;30214;52.246;14.408;2022-09-28T03:59:48;5.25;;;3.20;;
44508;SDS011;30214;52.246;14.408;2022-09-28T04:02:15;3.28;;;2.22;;
44508;SDS011;30214;52.246;14.408;2022-09-28T04:04:42;3.47;;;2.45;;
44508;SDS011;30214;52.246;14.408;2022-09-28T04:07:11;3.72;;;2.10;;
44508;SDS011;30214;52.246;14.408;2022-09-28T04:09:38;16.52;;;2.58;;
44508;SDS011;30214;52.246;14.408;2022-09-28T04:12:05;5.05;;;2.60;;
44508;SDS011;30214;52.246;14.408;2022-09-28T04:14:33;3.10;;;2.25;;
44508;SDS011;30214;52.246;14.408;2022-09-28T04:16:59;9.10;;;2.72;;
44508;SDS011;30214;52.246;14.408;2022-09-28T04:19:29;4.05;;;2.20;;
44508;SDS011;30214;52.246;14.408;2022-09-28T04:22:16;3.53;;;2.40;;
44508;SDS011;30214;52.246;14.408;2022-09-28T04:24:43;3.15;;;2.17;;
44508;SDS011;30214;52.246;14.408;2022-09-28T04:27:10;4.97;;;2.38;;
44508;SDS011;30214;52.246;14.408;2022-09-28T04:29:55;3.20;;;2.00;;
44508;SDS011;30214;52.246;14.408;2022-09-28T04:32:22;3.10;;;2.00;;
44508;SDS011;30214;52.246;14.408;2022-09-28T04:34:49;3.80;;;2.17;;
44508;SDS011;30214;52.246;14.408;2022-09-28T04:37:18;4.22;;;2.10;;
44508;SDS011;30214;52.246;14.408;2022-09-28T04:39:45;2.97;;;2.00;;
44508;SDS011;30214;52.246;14.408;2022-09-28T04:42:12;3.75;;;2.42;;
44508;SDS011;30214;52.246;14.408;2022-09-28T04:44:39;3.10;;;2.00;;
44508;SDS011;30214;52.246;14.408;2022-09-28T04:47:08;4.47;;;1.90;;
44508;SDS011;30214;52.246;14.408;2022-09-28T04:49:47;4.32;;;1.75;;
44508;SDS011;30214;52.246;14.408;2022-09-28T04:52:25;5.93;;;2.20;;
44508;SDS011;30214;52.246;14.408;2022-09-28T04:54:52;2.80;;;1.77;;
44508;SDS011;30214;52.246;14.408;2022-09-28T04:57:20;3.40;;;1.98;;
44508;SDS011;30214;52.246;14.408;2022-09-28T04:59:47;3.05;;;2.05;;
44508;SDS011;30214;52.246;14.408;2022-09-28T05:02:14;3.17;;;2.00;;
44508;SDS011;30214;52.246;14.408;2022-09-28T05:05:11;4.72;;;2.10;;
44508;SDS011;30214;52.246;14.408;2022-09-28T05:07:58;3.38;;;2.00;;
44508;SDS011;30214;52.246;14.408;2022-09-28T05:10:26;6.65;;;2.90;;
44508;SDS011;30214;52.246;14.408;2022-09-28T05:12:53;5.15;;;2.30;;
44508;SDS011;30214;52.246;14.408;2022-09-28T05:15:20;3.95;;;2.70;;
44508;SDS011;30214;52.246;14.408;2022-09-28T05:17:47;5.47;;;2.33;;
44508;SDS011;30214;52.246;14.408;2022-09-28T05:20:38;5.85;;;2.53;;
44508;SDS011;30214;52.246;14.408;2022-09-28T05:23:09;3.97;;;2.35;;
44508;SDS011;30214;52.246;14.408;2022-09-28T05:25:37;5.65;;;2.70;;
44508;SDS011;30214;52.246;14.408;2022-09-28T05:28:14;4.75;;;2.45;;
44508;SDS011;30214;52.246;14.408;2022-09-28T05:31:15;4.00;;;2.50;;
44508;SDS011;30214;52.246;14.408;2022-09-28T05:33:58;4.38;;;2.85;;
44508;SDS011;30214;52.246;14.408;2022-09-28T05:36:25;4.95;;;2.65;;
44508;SDS011;30214;52.246;14.408;2022-09-28T05:38:54;5.72;;;3.20;;
44508;SDS011;30214;52.246;14.408;2022-09-28T05:41:22;4.30;;;2.60;;
44508;SDS011;30214;52.246;14.408;2022-09-28T05:43:49;3.63;;;2.33;;
44508;SDS011;30214;52.246;14.408;2022-09-28T05:46:16;4.45;;;2.30;;
44508;SDS011;30214;52.246;14.408;2022-09-28T05:48:46;2.85;;;2.15;;
44508;SDS011;30214;52.246;14.408;2022-09-28T05:51:13;5.93;;;2.42;;
44508;SDS011;30214;52.246;14.408;2022-09-28T05:53:41;4.88;;;2.50;;
44508;SDS011;30214;52.246;14.408;2022-09-28T05:56:09;3.90;;;2.42;;
44508;SDS011;30214;52.246;14.408;2022-09-28T05:58:41;3.15;;;2.47;;
44508;SDS011;30214;52.246;14.408;2022-09-28T06:01:09;5.68;;;2.58;;
44508;SDS011;30214;52.246;14.408;2022-09-28T06:03:36;3.72;;;2.30;;
44508;SDS011;30214;52.246;14.408;2022-09-28T06:06:03;4.25;;;2.60;;
44508;SDS011;30214;52.246;14.408;2022-09-28T06:08:31;4.55;;;2.75;;
44508;SDS011;30214;52.246;14.408;2022-09-28T06:11:19;2.92;;;2.20;;
44508;SDS011;30214;52.246;14.408;2022-09-28T06:13:51;4.88;;;2.08;;
44508;SDS011;30214;52.246;14.408;2022-09-28T06:16:19;4.10;;;2.45;;
44508;SDS011;30214;52.246;14.408;2022-09-28T06:18:46;5.00;;;2.33;;
44508;SDS011;30214;52.246;14.408;2022-09-28T06:21:34;6.75;;;2.50;;
44508;SDS011;30214;52.246;14.408;2022-09-28T06:24:01;3.85;;;2.28;;
44508;SDS011;30214;52.246;14.408;2022-09-28T06:26:30;3.78;;;2.30;;
44508;SDS011;30214;52.246;14.408;2022-09-28T06:28:57;5.15;;;2.40;;
44508;SDS011;30214;52.246;14.408;2022-09-28T06:31:25;3.25;;;2.10;;
44508;SDS011;30214;52.246;14.408;2022-09-28T06:33:55;3.25;;;1.90;;
44508;SDS011;30214;52.246;14.408;2022-09-28T06:36:23;3.65;;;2.20;;
44508;SDS011;30214;52.246;14.408;2022-09-28T06:38:50;5.47;;;2.10;;
44508;SDS011;30214;52.246;14.408;2022-09-28T06:41:17;3.97;;;2.22;;
44508;SDS011;30214;52.246;14.408;2022-09-28T06:43:47;3.60;;;2.30;;
44508;SDS011;30214;52.246;14.408;2022-09-28T06:46:51;2.97;;;1.90;;
44508;SDS011;30214;52.246;14.408;2022-09-28T06:49:48;3.95;;;2.15;;
44508;SDS011;30214;52.246;14.408;2022-09-28T06:52:25;4.28;;;2.00;;
44508;SDS011;30214;52.246;14.408;2022-09-28T06:55:22;2.83;;;1.80;;
44508;SDS011;30214;52.246;14.408;2022-09-28T06:57:57;2.85;;;1.90;;
44508;SDS011;30214;52.246;14.408;2022-09-28T07:00:26;5.15;;;2.20;;
44508;SDS011;30214;52.246;14.408;2022-09-28T07:02:55;4.20;;;1.90;;
44508;SDS011;30214;52.246;14.408;2022-09-28T07:05:43;2.92;;;1.98;;
44508;SDS011;30214;52.246;14.408;2022-09-28T07:08:31;3.20;;;2.05;;
44508;SDS011;30214;52.246;14.408;2022-09-28T07:11:16;3.72;;;2.17;;
44508;SDS011;30214;52.246;14.408;2022-09-28T07:14:19;3.90;;;1.75;;
44508;SDS011;30214;52.246;14.408;2022-09-28T07:16:50;3.53;;;2.03;;
44508;SDS011;30214;52.246;14.408;2022-09-28T07:19:19;2.80;;;1.92;;
44508;SDS011;30214;52.246;14.408;2022-09-28T07:21:47;4.15;;;2.08;;
44508;SDS011;30214;52.246;14.408;2022-09-28T07:24:18;2.88;;;1.88;;
44508;SDS011;30214;52.246;14.408;2022-09-28T07:26:54;3.15;;;1.70;;
44508;SDS011;30214;52.246;14.408;2022-09-28T07:29:41;4.47;;;1.85;;
44508;SDS011;30214;52.246;14.408;2022-09-28T07:32:30;4.13;;;2.03;;
44508;SDS011;30214;52.246;14.408;2022-09-28T07:35:20;4.30;;;1.83;;
44508;SDS011;30214;52.246;14.408;2022-09-28T07:37:55;3.83;;;1.67;;
44508;SDS011;30214;52.246;14.408;2022-09-28T07:40:24;2.70;;;1.60;;
44508;SDS011;30214;52.246;14.408;2022-09-28T07:43:09;4.53;;;1.75;;
44508;SDS011;30214;52.246;14.408;2022-09-28T07:45:37;4.45;;;1.90;;
44508;SDS011;30214;52.246;14.408;2022-09-28T07:48:06;2.75;;;2.00;;
44508;SDS011;30214;52.246;14.408;2022-09-28T07:50:55;2.55;;;1.88;;
44508;SDS011;30214;52.246;14.408;2022-09-28T07:53:42;4.55;;;2.00;;
44508;SDS011;30214;52.246;14.408;2022-09-28T07:56:37;4.28;;;2.05;;
44508;SDS011;30214;52.246;14.408;2022-09-28T07:59:18;2.58;;;1.85;;
44508;SDS011;30214;52.246;14.408;2022-09-28T08:02:07;6.72;;;2.63;;
44508;SDS011;30214;52.246;14.408;2022-09-28T08:04:36;4.72;;;2.10;;
44508;SDS011;30214;52.246;14.408;2022-09-28T08:07:06;3.70;;;2.17;;
44508;SDS011;30214;52.246;14.408;2022-09-28T08:09:34;3.58;;;2.42;;
44508;SDS011;30214;52.246;14.408;2022-09-28T08:12:25;5.22;;;2.28;;
44508;SDS011;30214;52.246;14.408;2022-09-28T08:15:10;6.07;;;2.13;;
44508;SDS011;30214;52.246;14.408;2022-09-28T08:18:08;4.35;;;1.77;;
44508;SDS011;30214;52.246;14.408;2022-09-28T08:20:37;4.40;;;1.60;;
44508;SDS011;30214;52.246;14.408;2022-09-28T08:23:21;3.45;;;2.00;;
44508;SDS011;30214;52.246;14.408;2022-09-28T08:25:49;2.72;;;1.90;;
44508;SDS011;30214;52.246;14.408;2022-09-28T08:28:18;2.72;;;1.90;;
44508;SDS011;30214;52.246;14.408;2022-09-28T08:30:49;3.28;;;2.10;;
44508;SDS011;30214;52.246;14.408;2022-09-28T08:33:37;2.75;;;1.75;;
44508;SDS011;30214;52.246;14.408;2022-09-28T08:36:26;3.40;;;1.77;;
44508;SDS011;30214;52.246;14.408;2022-09-28T08:39:24;3.80;;;1.92;;
44508;SDS011;30214;52.246;14.408;2022-09-28T08:42:27;3.05;;;1.77;;
44508;SDS011;30214;52.246;14.408;2022-09-28T08:45:17;6.32;;;1.83;;
44508;SDS011;30214;52.246;14.408;2022-09-28T08:48:07;4.45;;;1.75;;
44508;SDS011;30214;52.246;14.408;2022-09-28T08:51:19;2.30;;;1.52;;
44508;SDS011;30214;52.246;14.408;2022-09-28T08:54:04;4.00;;;2.47;;
44508;SDS011;30214;52.246;14.408;2022-09-28T08:56:50;3.42;;;1.85;;
44508;SDS011;30214;52.246;14.408;2022-09-28T08:59:20;3.15;;;1.60;;
44508;SDS011;30214;52.246;14.408;2022-09-28T09:01:57;3.92;;;1.90;;
44508;SDS011;30214;52.246;14.408;2022-09-28T09:04:27;4.25;;;2.20;;
44508;SDS011;30214;52.246;14.408;2022-09-28T09:07:09;3.42;;;1.80;;
44508;SDS011;30214;52.246;14.408;2022-09-28T09:10:12;3.67;;;2.05;;
44508;SDS011;30214;52.246;14.408;2022-09-28T09:13:02;7.72;;;1.88;;
44508;SDS011;30214;52.246;14.408;2022-09-28T09:15:51;3.42;;;1.55;;
44508;SDS011;30214;52.246;14.408;2022-09-28T09:18:40;5.22;;;2.05;;
44508;SDS011;30214;52.246;14.408;2022-09-28T09:21:37;3.75;;;2.10;;
44508;SDS011;30214;52.246;14.408;2022-09-28T09:24:14;6.10;;;1.80;;
44508;SDS011;30214;52.246;14.408;2022-09-28T09:26:56;3.42;;;1.73;;
44508;SDS011;30214;52.246;14.408;2022-09-28T09:29:36;4.03;;;2.10;;
44508;SDS011;30214;52.246;14.408;2022-09-28T09:32:37;2.83;;;1.85;;
44508;SDS011;30214;52.246;14.408;2022-09-28T09:35:26;3.92;;;1.80;;
44508;SDS011;30214;52.246;14.408;2022-09-28T09:38:51;3.63;;;1.77;;
44508;SDS011;30214;52.246;14.408;2022-09-28T09:41:56;3.53;;;1.60;;
44508;SDS011;30214;52.246;14.408;2022-09-28T09:45:04;3.70;;;1.67;;
44508;SDS011;30214;52.246;14.408;2022-09-28T09:48:15;4.07;;;1.70;;
44508;SDS011;30214;52.246;14.408;2022-09-28T09:50:51;5.88;;;1.90;;
44508;SDS011;30214;52.246;14.408;2022-09-28T09:53:24;4.13;;;1.52;;
44508;SDS011;30214;52.246;14.408;2022-09-28T09:55:57;3.35;;;1.65;;
44508;SDS011;30214;52.246;14.408;2022-09-28T09:58:49;2.95;;;1.52;;
44508;SDS011;30214;52.246;14.408;2022-09-28T10:01:31;3.53;;;1.80;;
44508;SDS011;30214;52.246;14.408;2022-09-28T10:04:26;2.80;;;1.63;;
44508;SDS011;30214;52.246;14.408;2022-09-28T10:07:08;3.45;;;1.65;;
44508;SDS011;30214;52.246;14.408;2022-09-28T10:09:46;2.10;;;1.10;;
44508;SDS011;30214;52.246;14.408;2022-09-28T10:12:36;2.10;;;1.33;;
44508;SDS011;30214;52.246;14.408;2022-09-28T10:15:05;2.58;;;1.23;;
44508;SDS011;30214;52.246;14.408;2022-09-28T10:17:46;5.88;;;1.35;;
44508;SDS011;30214;52.246;14.408;2022-09-28T10:20:32;7.07;;;1.55;;
44508;SDS011;30214;52.246;14.408;2022-09-28T10:23:15;2.53;;;1.33;;
44508;SDS011;30214;52.246;14.408;2022-09-28T10:25:48;2.63;;;1.33;;
44508;SDS011;30214;52.246;14.408;2022-09-28T10:28:21;2.83;;;1.40;;
44508;SDS011;30214;52.246;14.408;2022-09-28T10:30:56;3.63;;;1.60;;
44508;SDS011;30214;52.246;14.408;2022-09-28T10:33:28;2.53;;;1.50;;
44508;SDS011;30214;52.246;14.408;2022-09-28T10:35:57;2.13;;;1.17;;
44508;SDS011;30214;52.246;14.408;2022-09-28T10:38:32;4.10;;;1.25;;
44508;SDS011;30214;52.246;14.408;2022-09-28T10:41:07;2.95;;;1.27;;
44508;SDS011;30214;52.246;14.408;2022-09-28T10:43:50;3.45;;;1.20;;
44508;SDS011;30214;52.246;14.408;2022-09-28T10:46:33;2.28;;;1.20;;
44508;SDS011;30214;52.246;14.408;2022-09-28T10:49:07;6.03;;;1.30;;
44508;SDS011;30214;52.246;14.408;2022-09-28T10:51:44;3.65;;;1.25;;
44508;SDS011;30214;52.246;14.408;2022-09-28T10:54:21;3.55;;;1.10;;
44508;SDS011;30214;52.246;14.408;2022-09-28T10:56:51;3.47;;;1.42;;
44508;SDS011;30214;52.246;14.408;2022-09-28T10:59:41;2.67;;;1.20;;
44508;SDS011;30214;52.246;14.408;2022-09-28T11:02:33;2.35;;;1.10;;
44508;SDS011;30214;52.246;14.408;2022-09-28T11:05:17;2.67;;;1.15;;
44508;SDS011;30214;52.246;14.408;2022-09-28T11:07:48;3.05;;;1.42;;
44508;SDS011;30214;52.246;14.408;2022-09-28T11:10:24;4.85;;;1.23;;
44508;SDS011;30214;52.246;14.408;2022-09-28T11:13:00;2.20;;;0.95;;
44508;SDS011;30214;52.246;14.408;2022-09-28T11:15:28;3.42;;;1.38;;
44508;SDS011;30214;52.246;14.408;2022-09-28T11:20:59;2.20;;;1.00;;
44508;SDS011;30214;52.246;14.408;2022-09-28T11:23:34;1.98;;;1.10;;
44508;SDS011;30214;52.246;14.408;2022-09-28T11:26:18;2.40;;;1.13;;
44508;SDS011;30214;52.246;14.408;2022-09-28T11:28:49;3.58;;;1.20;;
44508;SDS011;30214;52.246;14.408;2022-09-28T11:31:31;3.58;;;1.23;;
44508;SDS011;30214;52.246;14.408;2022-09-28T11:34:12;3.17;;;1.02;;
44508;SDS011;30214;52.246;14.408;2022-09-28T11:37:12;3.80;;;1.40;;
44508;SDS011;30214;52.246;14.408;2022-09-28T11:40:24;4.75;;;1.38;;
44508;SDS011;30214;52.246;14.408;2022-09-28T11:43:06;3.42;;;1.40;;
44508;SDS011;30214;52.246;14.408;2022-09-28T11:45:42;5.75;;;1.40;;
44508;SDS011;30214;52.246;14.408;2022-09-28T11:48:20;3.38;;;1.17;;
44508;SDS011;30214;52.246;14.408;2022-09-28T11:50:51;2.55;;;1.13;;
44508;SDS011;30214;52.246;14.408;2022-09-28T11:55:59;2.90;;;1.02;;
44508;SDS011;30214;52.246;14.408;2022-09-28T11:58:34;4.25;;;1.30;;
44508;SDS011;30214;52.246;14.408;2022-09-28T12:01:07;1.67;;;1.10;;
44508;SDS011;30214;52.246;14.408;2022-09-28T12:04:16;2.78;;;1.35;;
44508;SDS011;30214;52.246;14.408;2022-09-28T12:06:48;4.77;;;1.23;;
44508;SDS011;30214;52.246;14.408;2022-09-28T12:09:23;4.97;;;1.38;;
44508;SDS011;30214;52.246;14.408;2022-09-28T12:12:11;2.58;;;1.20;;
44508;SDS011;30214;52.246;14.408;2022-09-28T12:14:47;3.95;;;1.77;;
44508;SDS011;30214;52.246;14.408;2022-09-28T12:17:22;4.30;;;1.80;;
44508;SDS011;30214;52.246;14.408;2022-09-28T12:19:55;3.22;;;1.75;;
44508;SDS011;30214;52.246;14.408;2022-09-28T12:22:31;3.25;;;1.63;;
44508;SDS011;30214;52.246;14.408;2022-09-28T12:25:05;3.10;;;1.77;;
44508;SDS011;30214;52.246;14.408;2022-09-28T12:27:40;3.10;;;1.80;;
44508;SDS011;30214;52.246;14.408;2022-09-28T12:30:14;3.38;;;1.80;;
44508;SDS011;30214;52.246;14.408;2022-09-28T12:32:45;3.10;;;1.83;;
44508;SDS011;30214;52.246;14.408;2022-09-28T12:35:18;2.80;;;1.83;;
44508;SDS011;30214;52.246;14.408;2022-09-28T12:37:56;6.28;;;2.08;;
44508;SDS011;30214;52.246;14.408;2022-09-28T12:40:51;4.07;;;1.98;;
44508;SDS011;30214;52.246;14.408;2022-09-28T12:43:27;3.40;;;2.08;;
44508;SDS011;30214;52.246;14.408;2022-09-28T12:46:19;6.78;;;2.53;;
44508;SDS011;30214;52.246;14.408;2022-09-28T12:49:13;4.75;;;2.58;;
44508;SDS011;30214;52.246;14.408;2022-09-28T12:51:53;4.60;;;2.60;;
44508;SDS011;30214;52.246;14.408;2022-09-28T12:54:29;5.05;;;2.35;;
44508;SDS011;30214;52.246;14.408;2022-09-28T12:57:41;3.58;;;1.90;;
44508;SDS011;30214;52.246;14.408;2022-09-28T13:00:23;3.72;;;1.95;;
44508;SDS011;30214;52.246;14.408;2022-09-28T13:06:14;2.75;;;1.30;;
44508;SDS011;30214;52.246;14.408;2022-09-28T13:08:56;2.13;;;1.25;;
44508;SDS011;30214;52.246;14.408;2022-09-28T13:14:53;2.28;;;1.27;;
44508;SDS011;30214;52.246;14.408;2022-09-28T13:17:55;2.58;;;1.30;;
44508;SDS011;30214;52.246;14.408;2022-09-28T13:20:36;2.22;;;1.17;;
44508;SDS011;30214;52.246;14.408;2022-09-28T13:23:36;1.90;;;1.00;;
44508;SDS011;30214;52.246;14.408;2022-09-28T13:26:11;2.33;;;1.10;;
44508;SDS011;30214;52.246;14.408;2022-09-28T13:28:47;2.85;;;1.30;;
44508;SDS011;30214;52.246;14.408;2022-09-28T13:31:27;2.55;;;1.30;;
44508;SDS011;30214;52.246;14.408;2022-09-28T13:33:57;3.88;;;1.58;;
44508;SDS011;30214;52.246;14.408;2022-09-28T13:36:37;3.33;;;1.55;;
44508;SDS011;30214;52.246;14.408;2022-09-28T13:42:02;7.35;;;4.57;;
44508;SDS011;30214;52.246;14.408;2022-09-28T13:44:40;3.45;;;2.20;;
44508;SDS011;30214;52.246;14.408;2022-09-28T13:50:14;4.15;;;1.40;;
44508;SDS011;30214;52.246;14.408;2022-09-28T13:52:55;3.45;;;1.52;;
44508;SDS011;30214;52.246;14.408;2022-09-28T13:55:34;2.17;;;1.17;;
44508;SDS011;30214;52.246;14.408;2022-09-28T13:58:13;14.05;;;6.13;;
44508;SDS011;30214;52.246;14.408;2022-09-28T14:00:46;5.82;;;3.40;;
44508;SDS011;30214;52.246;14.408;2022-09-28T14:03:25;3.30;;;2.50;;
44508;SDS011;30214;52.246;14.408;2022-09-28T14:06:07;2.90;;;1.95;;
44508;SDS011;30214;52.246;14.408;2022-09-28T14:18:12;2.10;;;0.98;;
44508;SDS011;30214;52.246;14.408;2022-09-28T14:20:53;1.70;;;1.02;;
44508;SDS011;30214;52.246;14.408;2022-09-28T14:27:00;4.10;;;0.90;;
44508;SDS011;30214;52.246;14.408;2022-09-28T14:29:52;2.53;;;0.90;;
44508;SDS011;30214;52.246;14.408;2022-09-28T14:32:33;1.48;;;0.90;;
44508;SDS011;30214;52.246;14.408;2022-09-28T14:35:02;2.05;;;1.10;;
44508;SDS011;30214;52.246;14.408;2022-09-28T14:37:34;1.83;;;0.90;;
44508;SDS011;30214;52.246;14.408;2022-09-28T14:40:22;2.47;;;0.88;;
44508;SDS011;30214;52.246;14.408;2022-09-28T14:43:19;2.03;;;0.95;;
44508;SDS011;30214;52.246;14.408;2022-09-28T14:49:02;5.70;;;1.15;;
44508;SDS011;30214;52.246;14.408;2022-09-28T14:52:02;1.40;;;0.80;;
44508;SDS011;30214;52.246;14.408;2022-09-28T14:54:47;2.03;;;1.10;;
44508;SDS011;30214;52.246;14.408;2022-09-28T14:57:20;2.33;;;1.00;;
44508;SDS011;30214;52.246;14.408;2022-09-28T14:59:50;3.58;;;1.98;;
44508;SDS011;30214;52.246;14.408;2022-09-28T15:02:19;5.95;;;2.20;;
44508;SDS011;30214;52.246;14.408;2022-09-28T15:04:56;2.53;;;1.52;;
44508;SDS011;30214;52.246;14.408;2022-09-28T15:07:41;2.25;;;1.30;;
44508;SDS011;30214;52.246;14.408;2022-09-28T15:10:21;3.20;;;1.95;;
44508;SDS011;30214;52.246;14.408;2022-09-28T15:12:55;3.28;;;2.05;;
44508;SDS011;30214;52.246;14.408;2022-09-28T15:15:27;3.88;;;2.70;;
44508;SDS011;30214;52.246;14.408;2022-09-28T15:21:20;5.75;;;2.80;;
44508;SDS011;30214;52.246;14.408;2022-09-28T15:23:49;8.20;;;4.30;;
44508;SDS011;30214;52.246;14.408;2022-09-28T15:26:21;6.75;;;3.20;;
44508;SDS011;30214;52.246;14.408;2022-09-28T15:28:52;7.10;;;2.85;;
44508;SDS011;30214;52.246;14.408;2022-09-28T15:31:20;6.70;;;3.33;;
44508;SDS011;30214;52.246;14.408;2022-09-28T15:33:50;4.20;;;2.00;;
44508;SDS011;30214;52.246;14.408;2022-09-28T15:36:50;12.75;;;6.85;;
44508;SDS011;30214;52.246;14.408;2022-09-28T15:39:21;12.85;;;7.32;;
44508;SDS011;30214;52.246;14.408;2022-09-28T15:41:55;33.53;;;20.30;;
44508;SDS011;30214;52.246;14.408;2022-09-28T15:44:28;24.90;;;15.60;;
44508;SDS011;30214;52.246;14.408;2022-09-28T15:47:04;22.85;;;13.88;;
44508;SDS011;30214;52.246;14.408;2022-09-28T15:49:36;15.05;;;7.63;;
44508;SDS011;30214;52.246;14.408;2022-09-28T15:54:50;7.88;;;4.97;;
44508;SDS011;30214;52.246;14.408;2022-09-28T15:57:30;10.30;;;4.93;;
44508;SDS011;30214;52.246;14.408;2022-09-28T16:00:04;24.45;;;12.50;;
44508;SDS011;30214;52.246;14.408;2022-09-28T16:03:02;10.65;;;7.05;;
44508;SDS011;30214;52.246;14.408;2022-09-28T16:05:47;19.27;;;11.52;;
44508;SDS011;30214;52.246;14.408;2022-09-28T16:08:19;17.25;;;11.25;;
44508;SDS011;30214;52.246;14.408;2022-09-28T16:10:52;29.67;;;17.77;;
44508;SDS011;30214;52.246;14.408;2022-09-28T16:13:44;18.60;;;10.30;;